Time;durP1;ratioP1;P1;durP2;ratioP2;P2;SDS_P1;SDS_P2;PMS_P1;PMS_P2;Temp;Humidity;BMP_temperature;BMP_pressure;BME280_temperature;BME280_humidity;BME280_pressure;Samples;Min_cycle;Max_cycle;Signal;HPM_P1;HPM_P2
2021/07/25 00:00:29;;;;;;;0.15;0.15;;;;;;;18.23;89.03;100261.88;5049559;28;20053;-87
2021/07/25 00:02:58;;;;;;;0.10;0.10;;;;;;;18.16;90.16;100242.34;5043802;28;20049;-86
2021/07/25 00:05:26;;;;;;;0.10;0.10;;;;;;;18.08;88.50;100221.25;5036487;28;20058;-87
2021/07/25 00:08:00;;;;;;;0.10;0.10;;;;;;;18.21;89.74;100235.84;5048397;28;20049;-85
2021/07/25 00:10:28;;;;;;;0.10;0.10;;;;;;;18.00;90.96;100207.22;5042172;28;20076;-84
2021/07/25 00:13:03;;;;;;;0.10;0.10;;;;;;;18.21;89.03;100227.56;5033517;28;20065;-86
2021/07/25 00:15:32;;;;;;;0.10;0.10;;;;;;;18.16;89.91;100218.38;5038695;28;20053;-85
2021/07/25 00:18:00;;;;;;;0.20;0.10;;;;;;;17.89;90.48;100195.03;5048745;28;20693;-86
2021/07/25 00:20:28;;;;;;;0.10;0.10;;;;;;;18.11;90.28;100234.31;5053699;28;20052;-86
2021/07/25 00:22:57;;;;;;;0.10;0.10;;;;;;;18.08;90.22;100218.50;5053675;28;20515;-86
2021/07/25 00:25:32;;;;;;;0.10;0.10;;;;;;;18.11;89.31;100226.06;5033967;28;20049;-87
2021/07/25 00:28:14;;;;;;;0.10;0.10;;;;;;;17.90;90.46;100199.38;5033757;28;20053;-86
2021/07/25 00:30:47;;;;;;;0.10;0.10;;;;;;;18.01;90.56;100224.56;5033986;28;20079;-86
2021/07/25 00:33:23;;;;;;;0.10;0.10;;;;;;;17.91;89.75;100195.53;5033555;28;20582;-86
2021/07/25 00:35:51;;;;;;;0.10;0.10;;;;;;;18.09;90.08;100220.09;5033851;28;20056;-87
2021/07/25 00:38:19;;;;;;;0.10;0.10;;;;;;;18.12;89.27;100225.72;5034202;28;20049;-86
2021/07/25 00:40:57;;;;;;;0.10;0.10;;;;;;;18.01;90.16;100214.34;5033802;28;20045;-86
2021/07/25 00:43:41;;;;;;;0.10;0.10;;;;;;;18.04;90.09;100220.31;5034893;28;20060;-86
2021/07/25 00:46:13;;;;;;;0.10;0.10;;;;;;;18.05;89.52;100213.66;5037162;28;20124;-86
2021/07/25 00:48:43;;;;;;;0.20;0.20;;;;;;;17.99;89.89;100200.13;5033504;28;20057;-86
2021/07/25 00:51:12;;;;;;;0.10;0.10;;;;;;;17.96;90.87;100213.75;5034903;28;20060;-88
2021/07/25 00:53:45;;;;;;;0.10;0.10;;;;;;;17.97;89.96;100215.38;5032656;28;20045;-86
2021/07/25 00:56:14;;;;;;;0.10;0.10;;;;;;;17.96;90.26;100214.56;5033348;28;20409;-85
2021/07/25 00:58:44;;;;;;;0.10;0.10;;;;;;;17.83;89.41;100177.94;5047712;28;20053;-86
2021/07/25 01:01:14;;;;;;;0.10;0.10;;;;;;;17.65;89.55;100158.06;5047841;28;20041;-85
2021/07/25 01:04:20;;;;;;;0.10;0.10;;;;;;;17.96;89.19;100209.03;5045735;28;20058;-87
2021/07/25 01:07:02;;;;;;;0.10;0.10;;;;;;;17.88;89.79;100200.88;5044930;28;20049;-86
2021/07/25 01:09:44;;;;;;;0.10;0.10;;;;;;;17.77;89.34;100183.97;5036102;28;20518;-86
2021/07/25 01:12:18;;;;;;;0.10;0.10;;;;;;;17.89;89.04;100213.50;5037849;28;20046;-85
2021/07/25 01:14:49;;;;;;;0.20;0.20;;;;;;;17.86;90.08;100201.22;5033012;28;20060;-86
2021/07/25 01:17:28;;;;;;;0.10;0.10;;;;;;;17.89;90.01;100205.25;5034040;28;20049;-84
2021/07/25 01:19:58;;;;;;;0.10;0.10;;;;;;;17.95;87.05;100201.13;5042424;28;20057;-85
2021/07/25 01:22:29;;;;;;;0.10;0.10;;;;;;;17.97;87.35;100213.41;5031033;28;20046;-85
2021/07/25 01:25:07;;;;;;;0.00;0.00;;;;;;;17.94;89.13;100213.28;5038923;28;20053;-86
2021/07/25 01:27:44;;;;;;;0.10;0.10;;;;;;;17.82;88.84;100203.84;5043848;28;20717;-86
2021/07/25 01:30:17;;;;;;;0.10;0.10;;;;;;;17.82;89.18;100211.28;5051532;28;20386;-85
2021/07/25 01:32:52;;;;;;;0.10;0.10;;;;;;;17.80;88.20;100197.06;5052712;28;20049;-85
2021/07/25 01:35:28;;;;;;;0.30;0.20;;;;;;;17.64;87.93;100183.16;5052748;28;20052;-85
2021/07/25 01:38:01;;;;;;;0.10;0.10;;;;;;;17.81;88.94;100195.91;5053757;28;20040;-86
2021/07/25 01:40:29;;;;;;;0.10;0.10;;;;;;;17.72;88.11;100195.19;5049097;28;20057;-85
2021/07/25 01:42:58;;;;;;;0.10;0.10;;;;;;;17.80;87.28;100189.63;5031754;28;20056;-86
2021/07/25 01:45:26;;;;;;;0.10;0.10;;;;;;;17.83;88.22;100202.69;5032586;28;20060;-85
2021/07/25 01:47:59;;;;;;;0.10;0.10;;;;;;;17.66;88.58;100181.69;5032895;28;20125;-85
2021/07/25 01:50:42;;;;;;;0.10;0.10;;;;;;;17.65;88.20;100182.81;5032574;28;20053;-86
2021/07/25 01:53:15;;;;;;;0.10;0.10;;;;;;;17.73;88.27;100181.13;5031825;28;20391;-86
2021/07/25 01:55:48;;;;;;;0.10;0.10;;;;;;;17.63;88.21;100173.28;5032453;28;20049;-85
2021/07/25 01:58:17;;;;;;;0.10;0.10;;;;;;;17.45;88.79;100165.19;5039264;28;20528;-86
2021/07/25 02:00:45;;;;;;;0.10;0.10;;;;;;;17.59;88.92;100181.41;5032081;28;20064;-86
2021/07/25 02:03:24;;;;;;;0.10;0.10;;;;;;;17.58;89.01;100185.31;5031556;28;20072;-85
2021/07/25 02:05:58;;;;;;;0.10;0.10;;;;;;;17.50;88.96;100197.22;5031878;28;20060;-85
2021/07/25 02:08:31;;;;;;;0.10;0.10;;;;;;;17.46;87.86;100150.31;5031533;28;20050;-85
2021/07/25 02:11:05;;;;;;;0.10;0.10;;;;;;;17.54;88.71;100189.06;5032315;28;20486;-85
2021/07/25 02:13:38;;;;;;;0.10;0.10;;;;;;;17.54;89.08;100200.91;5032703;28;20044;-85
2021/07/25 02:16:11;;;;;;;0.10;0.10;;;;;;;17.52;89.20;100200.41;5033403;28;20057;-85
2021/07/25 02:18:39;;;;;;;0.13;0.13;;;;;;;17.47;89.69;100203.41;5031444;28;20041;-84
2021/07/25 02:21:14;;;;;;;0.10;0.10;;;;;;;17.42;89.54;100196.16;5031747;28;20060;-84
2021/07/25 02:23:47;;;;;;;0.10;0.10;;;;;;;17.38;90.05;100188.91;5031661;28;20060;-85
2021/07/25 02:26:15;;;;;;;0.10;0.10;;;;;;;17.40;89.45;100192.13;5032564;28;20034;-85
2021/07/25 02:28:49;;;;;;;0.10;0.10;;;;;;;17.46;89.39;100210.03;5041732;28;20056;-85
2021/07/25 02:31:17;;;;;;;0.00;0.00;;;;;;;17.43;89.91;100210.72;5052705;28;20064;-85
2021/07/25 02:33:50;;;;;;;0.10;0.10;;;;;;;17.37;89.86;100204.59;5050823;28;20075;-85
2021/07/25 02:36:24;;;;;;;0.10;0.10;;;;;;;17.43;89.98;100207.97;5051513;28;20052;-85
2021/07/25 02:38:52;;;;;;;0.20;0.20;;;;;;;17.54;89.37;100222.09;5031867;28;20052;-85
2021/07/25 02:41:25;;;;;;;0.32;0.10;;;;;;;17.40;90.17;100212.19;5030769;28;20050;-85
2021/07/25 02:43:59;;;;;;;0.10;0.10;;;;;;;17.48;89.52;100224.25;5037217;28;20034;-84
2021/07/25 02:46:27;;;;;;;0.10;0.10;;;;;;;17.47;90.13;100219.91;5048257;28;20050;-85
2021/07/25 02:49:00;;;;;;;0.20;0.20;;;;;;;17.47;90.16;100219.91;5032937;28;20686;-84
2021/07/25 02:51:35;;;;;;;0.10;0.10;;;;;;;17.43;90.33;100224.47;5030956;28;20057;-85
2021/07/25 02:54:08;;;;;;;0.10;0.10;;;;;;;17.50;89.93;100225.53;5030953;28;20045;-85
2021/07/25 02:56:42;;;;;;;0.30;0.20;;;;;;;17.48;90.58;100229.75;5031767;28;20052;-84
2021/07/25 02:59:10;;;;;;;0.10;0.10;;;;;;;17.37;90.43;100201.84;5049981;28;20068;-86
2021/07/25 03:01:45;;;;;;;0.10;0.10;;;;;;;17.53;90.17;100226.00;5045965;28;21687;-84
2021/07/25 03:04:18;;;;;;;0.10;0.10;;;;;;;17.50;90.85;100227.47;5042364;28;20052;-84
2021/07/25 03:06:53;;;;;;;0.10;0.10;;;;;;;17.54;89.82;100227.59;5041347;28;20048;-84
2021/07/25 03:09:26;;;;;;;0.10;0.10;;;;;;;17.49;91.38;100237.66;5033579;28;20049;-85
2021/07/25 03:11:59;;;;;;;0.10;0.10;;;;;;;17.51;90.95;100238.16;5040489;28;20053;-84
2021/07/25 03:14:33;;;;;;;0.10;0.10;;;;;;;17.41;91.45;100226.75;5038033;28;20048;-84
2021/07/25 03:17:06;;;;;;;0.20;0.10;;;;;;;17.51;91.07;100242.81;5041984;28;20046;-84
2021/07/25 03:19:39;;;;;;;0.10;0.10;;;;;;;17.54;90.70;100239.41;5042977;28;20406;-86
2021/07/25 03:22:14;;;;;;;0.10;0.10;;;;;;;17.57;90.36;100232.44;5042129;28;20049;-84
2021/07/25 03:24:47;;;;;;;0.38;0.20;;;;;;;17.50;89.99;100233.78;5050827;28;20049;-86
2021/07/25 03:27:20;;;;;;;0.10;0.10;;;;;;;17.48;91.63;100240.75;5036704;28;20429;-85
2021/07/25 03:29:53;;;;;;;0.10;0.10;;;;;;;17.54;91.07;100246.84;5041563;28;20045;-84
2021/07/25 03:32:34;;;;;;;0.10;0.10;;;;;;;17.47;90.46;100228.97;5043446;28;20131;-84
2021/07/25 03:35:08;;;;;;;0.10;0.10;;;;;;;17.54;91.14;100247.66;5031122;28;20049;-84
2021/07/25 03:37:45;;;;;;;0.10;0.10;;;;;;;17.56;90.89;100253.63;5034627;28;20175;-84
2021/07/25 03:40:18;;;;;;;0.10;0.10;;;;;;;17.54;91.25;100252.34;5031072;28;20053;-85
2021/07/25 03:42:55;;;;;;;0.10;0.10;;;;;;;17.52;90.38;100244.44;5030777;28;20296;-84
2021/07/25 03:45:30;;;;;;;0.10;0.10;;;;;;;17.57;91.15;100244.25;5044970;28;20107;-84
2021/07/25 03:48:03;;;;;;;0.20;0.20;;;;;;;17.54;90.85;100242.16;5053407;28;20049;-84
2021/07/25 03:50:37;;;;;;;0.10;0.10;;;;;;;17.56;91.07;100250.09;5052852;28;20050;-84
2021/07/25 03:53:08;;;;;;;0.10;0.10;;;;;;;17.63;90.60;100256.63;5041116;28;20490;-85
2021/07/25 03:55:44;;;;;;;0.20;0.20;;;;;;;17.55;92.31;100270.47;5051174;28;20053;-84
2021/07/25 03:58:17;;;;;;;0.10;0.10;;;;;;;17.54;92.29;100277.94;5051430;28;20076;-84
2021/07/25 04:00:50;;;;;;;0.10;0.10;;;;;;;17.54;92.41;100274.34;5036843;28;20533;-84
2021/07/25 04:03:18;;;;;;;0.13;0.13;;;;;;;17.46;92.67;100279.59;5049476;28;20506;-83
2021/07/25 04:05:52;;;;;;;0.17;0.17;;;;;;;17.43;92.79;100269.28;5035645;28;20045;-84
2021/07/25 04:08:29;;;;;;;0.10;0.10;;;;;;;17.39;93.69;100264.81;5034963;28;20076;-84
2021/07/25 04:11:03;;;;;;;0.10;0.10;;;;;;;17.55;92.87;100278.72;5050582;28;20049;-84
2021/07/25 04:13:37;;;;;;;0.13;0.13;;;;;;;17.50;93.59;100274.25;5045949;28;20527;-84
2021/07/25 04:16:05;;;;;;;0.13;0.13;;;;;;;17.49;93.26;100275.38;5038592;28;20054;-84
2021/07/25 04:18:33;;;;;;;0.10;0.10;;;;;;;17.54;92.73;100280.69;5034845;28;20049;-84
2021/07/25 04:21:07;;;;;;;0.13;0.10;;;;;;;17.57;92.86;100276.47;5036478;28;20517;-86
2021/07/25 04:23:55;;;;;;;0.10;0.10;;;;;;;17.58;93.26;100284.38;5054629;28;20131;-84
2021/07/25 04:26:24;;;;;;;0.10;0.10;;;;;;;17.46;92.95;100257.59;5034051;28;20045;-85
2021/07/25 04:28:53;;;;;;;0.20;0.20;;;;;;;17.45;93.01;100268.94;5052625;28;20044;-84
2021/07/25 04:31:26;;;;;;;0.20;0.10;;;;;;;17.56;93.95;100294.91;5041537;28;20046;-84
2021/07/25 04:34:00;;;;;;;0.10;0.10;;;;;;;17.54;93.38;100290.88;5033713;28;20536;-84
2021/07/25 04:36:29;;;;;;;0.30;0.20;;;;;;;17.62;93.78;100292.75;5036432;28;20053;-85
2021/07/25 04:39:07;;;;;;;0.10;0.10;;;;;;;17.57;93.25;100288.25;5049807;28;20045;-84
2021/07/25 04:41:45;;;;;;;0.10;0.10;;;;;;;17.64;93.88;100302.28;5042523;28;20493;-85
2021/07/25 04:44:19;;;;;;;0.10;0.10;;;;;;;17.63;93.95;100303.41;5053265;28;20056;-85
2021/07/25 04:46:55;;;;;;;0.10;0.10;;;;;;;17.66;93.97;100294.50;5049832;28;20414;-85
2021/07/25 04:49:38;;;;;;;0.10;0.10;;;;;;;17.73;93.91;100296.72;5033903;28;20486;-84
2021/07/25 04:52:14;;;;;;;0.10;0.10;;;;;;;17.70;94.31;100294.63;5044411;28;20425;-84
2021/07/25 04:54:50;;;;;;;0.10;0.10;;;;;;;17.78;94.60;100298.44;5032772;28;20049;-84
2021/07/25 04:57:25;;;;;;;0.15;0.15;;;;;;;17.78;93.54;100303.94;5043350;28;20054;-85
2021/07/25 05:00:00;;;;;;;0.10;0.10;;;;;;;17.83;93.63;100301.00;5038456;28;20703;-84
2021/07/25 05:02:31;;;;;;;0.20;0.20;;;;;;;17.87;93.72;100309.34;5032814;28;20489;-84
2021/07/25 05:05:05;;;;;;;0.10;0.10;;;;;;;17.87;93.94;100304.69;5032707;28;20433;-84
2021/07/25 05:07:41;;;;;;;0.10;0.10;;;;;;;17.88;94.53;100319.22;5033595;28;20041;-84
2021/07/25 05:10:17;;;;;;;0.10;0.10;;;;;;;17.94;93.38;100318.72;5035591;28;20057;-84
2021/07/25 05:12:56;;;;;;;0.15;0.10;;;;;;;17.93;93.50;100302.53;5042429;28;20057;-84
2021/07/25 05:15:32;;;;;;;0.10;0.10;;;;;;;17.94;93.94;100315.97;5033222;28;20053;-84
2021/07/25 05:18:07;;;;;;;0.10;0.10;;;;;;;18.01;94.40;100324.47;5034436;28;20394;-85
2021/07/25 05:20:44;;;;;;;0.10;0.10;;;;;;;18.02;94.06;100326.09;5032713;28;20050;-84
2021/07/25 05:23:21;;;;;;;0.10;0.10;;;;;;;18.08;94.07;100340.44;5033593;28;20491;-85
2021/07/25 05:25:54;;;;;;;0.10;0.10;;;;;;;18.13;94.25;100342.16;5032633;28;20057;-84
2021/07/25 05:28:47;;;;;;;0.10;0.10;;;;;;;18.15;94.23;100345.41;5032791;28;20049;-85
2021/07/25 05:31:22;;;;;;;0.10;0.10;;;;;;;18.20;93.83;100345.16;5046288;28;20502;-84
2021/07/25 05:34:01;;;;;;;0.57;0.20;;;;;;;18.22;94.95;100344.84;5032696;28;20053;-84
2021/07/25 05:36:31;;;;;;;0.20;0.20;;;;;;;18.29;94.74;100350.59;5033551;28;20072;-84
2021/07/25 05:39:04;;;;;;;0.10;0.10;;;;;;;18.38;95.02;100354.09;5032845;28;20064;-84
2021/07/25 05:41:34;;;;;;;0.10;0.10;;;;;;;18.41;94.75;100350.66;5043671;28;20421;-84
2021/07/25 05:44:08;;;;;;;0.10;0.10;;;;;;;18.45;94.23;100359.00;5033638;28;20050;-84
2021/07/25 05:46:41;;;;;;;0.10;0.10;;;;;;;18.25;94.25;100331.19;5038860;28;20057;-84
2021/07/25 05:50:04;;;;;;;0.20;0.20;;;;;;;18.45;94.18;100359.84;5034324;28;20044;-85
2021/07/25 05:52:49;;;;;;;0.10;0.10;;;;;;;18.52;93.31;100365.59;5036168;28;20057;-85
2021/07/25 05:55:25;;;;;;;0.10;0.10;;;;;;;18.45;93.95;100367.28;5040159;28;20041;-84
2021/07/25 05:57:55;;;;;;;0.10;0.10;;;;;;;18.28;93.92;100346.25;5037818;28;20052;-84
2021/07/25 06:00:33;;;;;;;0.10;0.10;;;;;;;18.62;93.32;100371.81;5050481;28;20045;-85
2021/07/25 06:03:06;;;;;;;0.10;0.10;;;;;;;18.76;93.74;100355.72;5031880;28;20049;-84
2021/07/25 06:05:40;;;;;;;0.10;0.10;;;;;;;18.99;93.61;100358.09;5041389;28;20053;-85
2021/07/25 06:08:09;;;;;;;0.20;0.20;;;;;;;19.18;92.22;100352.78;5044383;28;20045;-84
2021/07/25 06:10:44;;;;;;;0.10;0.10;;;;;;;19.40;91.79;100360.91;5038136;28;20040;-84
2021/07/25 06:13:19;;;;;;;0.10;0.10;;;;;;;19.29;92.23;100364.16;5034967;28;20041;-84
2021/07/25 06:15:48;;;;;;;0.10;0.10;;;;;;;19.20;91.82;100360.72;5033004;28;20045;-84
2021/07/25 06:18:41;;;;;;;0.20;0.20;;;;;;;19.14;92.63;100356.56;5040600;28;20077;-85
2021/07/25 06:21:09;;;;;;;0.10;0.10;;;;;;;19.29;91.96;100366.91;5033823;28;20046;-85
2021/07/25 06:23:41;;;;;;;0.10;0.10;;;;;;;19.49;91.58;100365.16;5050844;28;20058;-84
2021/07/25 06:26:14;;;;;;;0.10;0.10;;;;;;;19.37;92.24;100332.06;5036608;28;20084;-84
2021/07/25 06:29:08;;;;;;;0.10;0.10;;;;;;;19.66;92.48;100360.50;5037239;28;20429;-84
2021/07/25 06:31:47;;;;;;;0.10;0.10;;;;;;;19.61;90.11;100345.00;5040649;28;20052;-83
2021/07/25 06:34:30;;;;;;;0.10;0.10;;;;;;;19.57;89.91;100343.28;5033613;28;20068;-87
2021/07/25 06:37:05;;;;;;;0.10;0.10;;;;;;;19.84;87.44;100355.53;5041534;28;20045;-86
2021/07/25 06:39:40;;;;;;;0.13;0.13;;;;;;;19.90;87.80;100370.72;5047050;28;20044;-86
2021/07/25 06:42:11;;;;;;;0.10;0.10;;;;;;;20.10;87.81;100368.88;5031094;28;20048;-84
2021/07/25 06:44:45;;;;;;;0.10;0.10;;;;;;;20.07;88.52;100366.03;5035605;28;20782;-84
2021/07/25 06:47:25;;;;;;;0.10;0.10;;;;;;;20.13;86.32;100370.16;5038760;28;20410;-92
2021/07/25 06:49:58;;;;;;;0.10;0.10;;;;;;;20.04;88.68;100365.56;5050912;28;20087;-84
2021/07/25 06:52:31;;;;;;;0.10;0.10;;;;;;;20.20;86.66;100375.84;5035725;28;20047;-83
2021/07/25 06:55:00;;;;;;;0.10;0.10;;;;;;;20.34;86.56;100373.50;5041315;28;20425;-84
2021/07/25 06:57:33;;;;;;;0.10;0.10;;;;;;;20.51;85.73;100377.09;5044409;28;20049;-84
2021/07/25 07:00:03;;;;;;;0.10;0.10;;;;;;;20.56;83.94;100382.34;5034159;28;20046;-83
2021/07/25 07:02:48;;;;;;;0.10;0.10;;;;;;;20.68;84.70;100374.00;5031817;28;20056;-85
2021/07/25 07:05:23;;;;;;;0.10;0.10;;;;;;;20.63;85.50;100376.19;5050240;28;20049;-84
2021/07/25 07:07:57;;;;;;;0.10;0.10;;;;;;;20.49;85.87;100363.59;5034532;28;21864;-85
2021/07/25 07:10:27;;;;;;;0.10;0.10;;;;;;;20.54;86.50;100374.41;5048861;28;20049;-83
2021/07/25 07:13:03;;;;;;;0.10;0.10;;;;;;;20.50;85.69;100375.47;5040642;28;20417;-84
2021/07/25 07:15:39;;;;;;;0.10;0.10;;;;;;;20.56;85.37;100365.75;5043436;28;20041;-86
2021/07/25 07:18:12;;;;;;;0.10;0.10;;;;;;;20.47;86.14;100345.78;5044874;28;20049;-85
2021/07/25 07:20:56;;;;;;;0.10;0.10;;;;;;;20.71;83.62;100356.72;5039221;28;20386;-84
2021/07/25 07:23:29;;;;;;;0.10;0.10;;;;;;;21.21;83.52;100367.34;5038722;28;20053;-85
2021/07/25 07:25:57;;;;;;;0.10;0.10;;;;;;;21.50;85.47;100368.81;5048492;28;20061;-85
2021/07/25 07:28:25;;;;;;;0.13;0.13;;;;;;;21.83;84.35;100361.22;5041851;28;20453;-85
2021/07/25 07:31:03;;;;;;;0.10;0.10;;;;;;;22.07;79.96;100360.91;5040992;28;20049;-85
2021/07/25 07:34:25;;;;;;;0.10;0.10;;;;;;;22.44;79.66;100362.38;5037541;28;20045;-85
2021/07/25 07:37:04;;;;;;;0.10;0.10;;;;;;;22.45;80.40;100358.47;5044444;28;20552;-84
2021/07/25 07:39:38;;;;;;;0.10;0.10;;;;;;;22.55;78.48;100362.59;5041731;28;20403;-86
2021/07/25 07:42:12;;;;;;;0.10;0.10;;;;;;;22.58;78.33;100346.03;5042437;28;20813;-86
2021/07/25 07:44:45;;;;;;;0.10;0.10;;;;;;;22.83;75.79;100369.78;5051801;28;20049;-85
2021/07/25 07:47:19;;;;;;;0.10;0.10;;;;;;;22.68;75.48;100371.53;5034165;28;20056;-84
2021/07/25 07:49:48;;;;;;;0.10;0.10;;;;;;;22.56;75.54;100370.53;5034036;28;20057;-84
2021/07/25 07:52:21;;;;;;;0.10;0.10;;;;;;;22.50;76.31;100368.47;5046299;28;20056;-84
2021/07/25 07:54:54;;;;;;;0.10;0.10;;;;;;;22.29;74.36;100363.28;5045484;28;20044;-85
2021/07/25 07:57:27;;;;;;;0.10;0.10;;;;;;;22.27;77.81;100377.50;5044475;28;20056;-84
2021/07/25 08:00:15;;;;;;;0.10;0.10;;;;;;;21.90;76.66;100362.16;5041222;28;20045;-85
2021/07/25 08:08:07;;;;;;;0.10;0.10;;;;;;;21.76;76.04;100377.69;5055663;28;20048;-86
2021/07/25 08:10:37;;;;;;;0.10;0.10;;;;;;;21.75;75.59;100360.28;5036165;28;20041;-85
2021/07/25 08:13:17;;;;;;;0.10;0.10;;;;;;;21.94;77.39;100372.50;5027807;28;20045;-87
2021/07/25 08:16:43;;;;;;;0.10;0.10;;;;;;;22.00;76.30;100366.31;5039984;28;20502;-86
2021/07/25 08:20:03;;;;;;;0.10;0.10;;;;;;;21.99;75.26;100359.16;5035865;28;20053;-85
2021/07/25 08:23:27;;;;;;;0.10;0.10;;;;;;;21.94;74.55;100367.75;5034103;28;20433;-85
2021/07/25 08:26:02;;;;;;;0.10;0.10;;;;;;;21.98;76.67;100359.53;5032441;28;20061;-86
2021/07/25 08:28:35;;;;;;;0.10;0.10;;;;;;;22.18;72.69;100369.44;5036818;28;20320;-85
2021/07/25 08:31:10;;;;;;;0.10;0.10;;;;;;;22.00;74.88;100362.72;5045963;28;20056;-86
2021/07/25 08:33:44;;;;;;;0.10;0.10;;;;;;;22.03;75.90;100365.56;5033847;28;20060;-85
2021/07/25 08:36:22;;;;;;;0.10;0.10;;;;;;;22.28;74.46;100362.50;5050292;28;20440;-86
2021/07/25 08:38:51;;;;;;;0.10;0.10;;;;;;;22.19;73.83;100367.44;5034432;28;20050;-85
2021/07/25 08:41:56;;;;;;;0.10;0.10;;;;;;;22.23;76.58;100362.78;5032627;28;20509;-85
2021/07/25 08:44:45;;;;;;;0.10;0.10;;;;;;;22.19;73.33;100364.69;5032631;28;20042;-86
2021/07/25 08:47:39;;;;;;;0.10;0.10;;;;;;;22.30;73.32;100376.75;5036866;28;20057;-86
2021/07/25 08:50:14;;;;;;;0.10;0.10;;;;;;;22.20;75.51;100367.09;5032604;28;20084;-86
2021/07/25 08:53:04;;;;;;;0.10;0.10;;;;;;;22.35;75.79;100353.53;5034566;28;20252;-85
2021/07/25 08:55:42;;;;;;;0.10;0.10;;;;;;;22.64;74.63;100365.13;5029350;28;20057;-86
2021/07/25 08:58:28;;;;;;;0.10;0.10;;;;;;;22.64;74.19;100368.69;5031775;28;20049;-86
2021/07/25 09:01:33;;;;;;;0.10;0.10;;;;;;;22.81;73.12;100374.91;5031398;28;20060;-86
2021/07/25 09:04:13;;;;;;;0.10;0.10;;;;;;;22.92;70.99;100373.13;5028945;28;20060;-86
2021/07/25 09:06:52;;;;;;;0.10;0.10;;;;;;;23.25;74.20;100375.22;5035722;28;20407;-86
2021/07/25 09:09:35;;;;;;;0.10;0.10;;;;;;;23.21;69.61;100354.16;5033821;28;20057;-85
2021/07/25 09:12:10;;;;;;;0.10;0.10;;;;;;;23.27;69.86;100372.91;5034233;28;20037;-87
2021/07/25 09:14:47;;;;;;;0.10;0.10;;;;;;;23.17;74.22;100375.50;5031116;28;20060;-86
2021/07/25 09:17:15;;;;;;;0.10;0.10;;;;;;;23.03;72.57;100351.88;5035318;28;20614;-86
2021/07/25 09:20:22;;;;;;;0.10;0.10;;;;;;;23.35;73.67;100370.22;5033685;28;20061;-87
2021/07/25 09:23:05;;;;;;;0.10;0.10;;;;;;;23.36;73.10;100364.28;5033187;28;20061;-86
2021/07/25 09:25:42;;;;;;;0.10;0.10;;;;;;;23.50;70.82;100374.78;5033464;28;20067;-85
2021/07/25 09:28:24;;;;;;;0.10;0.10;;;;;;;23.54;68.34;100375.66;5032905;28;21468;-87
2021/07/25 09:30:55;;;;;;;0.10;0.10;;;;;;;23.46;68.67;100362.84;5034108;28;20068;-86
2021/07/25 09:33:33;;;;;;;0.10;0.10;;;;;;;23.28;71.69;100365.38;5030245;28;20057;-88
2021/07/25 09:36:05;;;;;;;0.10;0.10;;;;;;;23.70;71.24;100374.69;5031377;28;20057;-88
2021/07/25 09:38:41;;;;;;;0.10;0.10;;;;;;;23.67;70.22;100367.06;5031596;28;20595;-87
2021/07/25 09:41:17;;;;;;;0.10;0.10;;;;;;;23.83;70.70;100378.00;5030092;28;20052;-86
2021/07/25 09:44:12;;;;;;;0.10;0.10;;;;;;;23.66;70.74;100351.59;5029797;28;20050;-87
2021/07/25 09:46:54;;;;;;;0.20;0.10;;;;;;;23.89;68.68;100377.34;5030098;28;20060;-87
2021/07/25 09:49:22;;;;;;;0.10;0.10;;;;;;;23.54;70.28;100374.84;5031832;28;20060;-88
2021/07/25 09:51:55;;;;;;;0.10;0.10;;;;;;;23.26;73.70;100368.50;5032564;28;20065;-86
2021/07/25 09:54:26;;;;;;;0.20;0.20;;;;;;;23.24;73.37;100361.72;5027554;28;20061;-88
2021/07/25 09:57:10;;;;;;;0.10;0.10;;;;;;;23.21;76.83;100326.41;5028924;28;20054;-88
2021/07/25 09:59:44;;;;;;;0.10;0.10;;;;;;;23.72;74.26;100350.88;5029033;28;20064;-87
2021/07/25 10:02:39;;;;;;;0.10;0.10;;;;;;;23.68;72.99;100379.81;5029976;28;20086;-84
2021/07/25 10:05:10;;;;;;;0.13;0.13;;;;;;;22.85;73.26;100348.81;5030942;28;20398;-86
2021/07/25 10:07:50;;;;;;;0.10;0.10;;;;;;;23.23;74.88;100385.94;5027859;28;20059;-86
2021/07/25 10:10:27;;;;;;;0.10;0.10;;;;;;;23.20;73.69;100374.75;5027057;28;20045;-87
2021/07/25 10:12:58;;;;;;;0.10;0.10;;;;;;;23.18;76.55;100343.81;5028189;28;20061;-88
2021/07/25 10:15:29;;;;;;;0.10;0.10;;;;;;;22.85;74.54;100379.34;5029338;28;20064;-87
2021/07/25 10:18:02;;;;;;;0.10;0.10;;;;;;;23.06;74.21;100367.00;5032028;28;20068;-88
2021/07/25 10:20:31;;;;;;;0.20;0.20;;;;;;;22.64;75.79;100363.16;5035030;28;20053;-87
2021/07/25 10:23:11;;;;;;;0.10;0.10;;;;;;;23.10;78.45;100377.00;5032239;28;20913;-88
2021/07/25 10:26:12;;;;;;;0.10;0.10;;;;;;;23.22;75.53;100394.63;5030941;28;20057;-88
2021/07/25 10:28:42;;;;;;;0.10;0.10;;;;;;;22.87;74.67;100384.53;5034073;28;20048;-87
2021/07/25 10:31:14;;;;;;;0.10;0.10;;;;;;;23.22;77.12;100392.66;5027958;28;20068;-88
2021/07/25 10:33:49;;;;;;;0.10;0.10;;;;;;;23.42;76.10;100400.88;5028835;28;20053;-87
2021/07/25 10:36:25;;;;;;;0.20;0.20;;;;;;;23.27;72.54;100369.34;5032500;28;20053;-86
2021/07/25 10:39:03;;;;;;;0.10;0.10;;;;;;;22.58;72.93;100389.59;5043118;28;20068;-86
2021/07/25 10:41:32;;;;;;;0.10;0.10;;;;;;;22.96;75.24;100398.16;5028103;28;20799;-86
2021/07/25 10:44:31;;;;;;;0.10;0.10;;;;;;;23.16;72.29;100393.34;5032571;28;20088;-87
2021/07/25 10:47:29;;;;;;;0.10;0.10;;;;;;;23.38;70.98;100384.16;5028886;28;20687;-87
2021/07/25 10:50:07;;;;;;;0.10;0.10;;;;;;;23.44;70.65;100381.88;5028615;28;20147;-87
2021/07/25 10:53:06;;;;;;;0.10;0.10;;;;;;;23.62;69.57;100386.88;5029225;28;20068;-88
2021/07/25 10:55:47;;;;;;;0.10;0.10;;;;;;;23.75;71.27;100379.88;5028178;28;20049;-86
2021/07/25 10:58:23;;;;;;;0.10;0.10;;;;;;;23.76;69.40;100395.38;5030205;28;20053;-86
2021/07/25 11:00:58;;;;;;;0.10;0.10;;;;;;;23.40;69.97;100379.03;5030824;28;20056;-87
2021/07/25 11:03:44;;;;;;;0.10;0.10;;;;;;;23.47;71.10;100394.19;5032087;28;20054;-87
2021/07/25 11:06:24;;;;;;;0.10;0.10;;;;;;;23.15;73.17;100378.66;5031023;28;20062;-87
2021/07/25 11:08:54;;;;;;;0.10;0.10;;;;;;;23.53;72.38;100395.47;5030851;28;20062;-86
2021/07/25 11:11:55;;;;;;;0.10;0.10;;;;;;;24.02;70.89;100377.88;5034833;28;20086;-87
2021/07/25 11:15:07;;;;;;;0.10;0.10;;;;;;;24.11;68.50;100397.84;5032074;28;20060;-89
2021/07/25 11:17:53;;;;;;;0.10;0.10;;;;;;;23.22;70.50;100397.41;5028460;28;20053;-86
2021/07/25 11:20:35;;;;;;;0.10;0.10;;;;;;;22.99;74.56;100378.78;5030162;28;20049;-85
2021/07/25 11:23:31;;;;;;;0.10;0.10;;;;;;;23.18;73.61;100402.09;5032030;28;20064;-86
2021/07/25 11:26:34;;;;;;;0.10;0.10;;;;;;;23.10;72.40;100401.97;5028390;28;20073;-87
2021/07/25 11:29:16;;;;;;;0.10;0.10;;;;;;;22.94;72.99;100392.97;5029586;28;20694;-86
2021/07/25 11:31:55;;;;;;;0.10;0.10;;;;;;;22.98;70.94;100399.41;5028972;28;20053;-86
2021/07/25 11:34:45;;;;;;;0.10;0.10;;;;;;;23.16;70.52;100399.72;5031887;28;20061;-85
2021/07/25 11:37:14;;;;;;;0.10;0.10;;;;;;;22.88;70.75;100381.41;5032581;28;20057;-86
2021/07/25 11:40:01;;;;;;;0.10;0.10;;;;;;;23.60;73.54;100398.34;5032104;28;20061;-86
2021/07/25 11:43:00;;;;;;;0.10;0.10;;;;;;;23.77;71.33;100394.22;5030475;28;20065;-86
2021/07/25 11:45:34;;;;;;;0.10;0.10;;;;;;;23.63;72.02;100396.78;5029357;28;20050;-87
2021/07/25 11:48:19;;;;;;;0.10;0.10;;;;;;;23.84;69.90;100391.53;5032283;28;20083;-86
2021/07/25 11:50:48;;;;;;;0.10;0.10;;;;;;;23.70;67.96;100394.91;5031553;28;20936;-85
2021/07/25 11:53:21;;;;;;;0.10;0.10;;;;;;;23.54;67.85;100397.88;5029826;28;20063;-87
2021/07/25 11:55:58;;;;;;;0.10;0.10;;;;;;;23.41;69.14;100402.06;5031606;28;20053;-87
2021/07/25 11:58:28;;;;;;;0.10;0.10;;;;;;;23.26;69.00;100403.81;5029705;28;20421;-87
2021/07/25 12:01:10;;;;;;;0.10;0.10;;;;;;;23.36;72.55;100408.72;5028753;28;20719;-86
2021/07/25 12:03:39;;;;;;;0.10;0.10;;;;;;;23.29;68.71;100385.63;5033614;28;20057;-87
2021/07/25 12:06:14;;;;;;;0.10;0.10;;;;;;;23.70;66.32;100389.38;5031629;28;21258;-86
2021/07/25 12:09:02;;;;;;;0.10;0.10;;;;;;;24.11;66.12;100380.34;5034294;28;20060;-85
2021/07/25 12:11:39;;;;;;;0.10;0.10;;;;;;;24.34;64.54;100396.88;5034770;28;20072;-85
2021/07/25 12:14:44;;;;;;;0.10;0.10;;;;;;;24.20;65.06;100400.31;5036850;28;20064;-85